Time;durP1;ratioP1;P1;durP2;ratioP2;P2;SDS_P1;SDS_P2;PMS_P1;PMS_P2;Temp;Humidity;BMP_temperature;BMP_pressure;BME280_temperature;BME280_humidity;BME280_pressure;Samples;Min_cycle;Max_cycle;Signal;HPM_P1;HPM_P2
2022/05/10 00:00:15;;;;;;;13.83;4.62;;;;;;;10.65;41.75;101745.59;1725383;82;26382;-63
2022/05/10 00:02:45;;;;;;;16.37;4.83;;;;;;;10.62;41.85;101738.97;1722657;81;98885;-61
2022/05/10 00:05:11;;;;;;;12.73;4.87;;;;;;;10.58;41.91;101742.65;1726177;81;25865;-61
2022/05/10 00:07:38;;;;;;;17.55;5.03;;;;;;;10.55;42.06;101744.07;1723847;82;25845;-62
2022/05/10 00:10:10;;;;;;;13.13;5.10;;;;;;;10.53;42.15;101740.55;1722694;83;98596;-62
2022/05/10 00:12:37;;;;;;;14.23;5.17;;;;;;;10.51;42.25;101738.83;1697137;83;25712;-62
2022/05/10 00:15:06;;;;;;;12.80;5.20;;;;;;;10.47;42.33;101732.66;1690619;83;98939;-63
2022/05/10 00:17:39;;;;;;;14.75;4.92;;;;;;;10.46;42.41;101740.74;1693579;83;25745;-62
2022/05/10 00:20:16;;;;;;;11.88;4.97;;;;;;;10.43;42.57;101733.66;1691729;83;99181;-63
2022/05/10 00:22:43;;;;;;;15.10;4.83;;;;;;;10.42;42.65;101731.91;1723644;81;25824;-63
2022/05/10 00:25:15;;;;;;;12.70;4.47;;;;;;;10.38;42.66;101732.93;1662726;84;26376;-64
2022/05/10 00:27:42;;;;;;;13.68;4.65;;;;;;;10.36;42.79;101727.61;1719235;81;98931;-64
2022/05/10 00:30:11;;;;;;;14.28;5.40;;;;;;;10.34;42.85;101727.23;1696161;83;25802;-64
2022/05/10 00:32:39;;;;;;;11.97;4.70;;;;;;;10.31;42.87;101728.64;1694811;83;98932;-65
2022/05/10 00:35:15;;;;;;;10.78;4.50;;;;;;;10.30;42.99;101726.42;1696376;83;26578;-63
2022/05/10 00:37:45;;;;;;;8.35;4.50;;;;;;;10.28;43.06;101722.90;1705715;82;26281;-63
2022/05/10 00:40:17;;;;;;;9.33;3.85;;;;;;;10.27;43.09;101713.09;1702263;82;98530;-63
2022/05/10 00:43:36;;;;;;;21.35;5.20;;;;;;;10.27;43.17;101714.91;1701624;82;26142;-63
2022/05/10 00:46:26;;;;;;;12.55;4.72;;;;;;;10.25;43.28;101712.72;1700756;82;98792;-63
2022/05/10 00:49:33;;;;;;;10.30;4.30;;;;;;;10.21;43.48;101713.25;1674809;84;27883;-63
2022/05/10 00:52:04;;;;;;;12.68;4.90;;;;;;;10.17;43.48;101708.86;1649367;85;98965;-63
2022/05/10 00:54:54;;;;;;;10.08;4.92;;;;;;;10.12;43.57;101704.07;1675174;85;27487;-62
2022/05/10 00:57:38;;;;;;;17.35;4.28;;;;;;;10.09;43.67;101702.34;1712477;82;98909;-61
2022/05/10 01:00:16;;;;;;;12.95;4.65;;;;;;;10.08;43.70;101696.56;1709824;83;26479;-62
2022/05/10 01:03:27;;;;;;;9.10;4.15;;;;;;;10.07;43.79;101688.11;1710797;82;98870;-62
2022/05/10 01:06:13;;;;;;;11.15;4.72;;;;;;;10.07;43.90;101686.77;1708748;82;29801;-61
2022/05/10 01:09:09;;;;;;;18.82;5.15;;;;;;;10.05;43.98;101683.70;1709506;82;98944;-63
2022/05/10 01:11:42;;;;;;;19.62;6.90;;;;;;;10.01;44.05;101680.22;1713625;82;26220;-63
2022/05/10 01:14:22;;;;;;;15.13;6.20;;;;;;;9.98;44.15;101679.42;1707971;82;99138;-63
2022/05/10 01:16:48;;;;;;;15.35;6.00;;;;;;;9.95;44.20;101677.70;1709347;83;26224;-61
2022/05/10 01:19:16;;;;;;;16.20;6.12;;;;;;;9.91;44.31;101676.47;1708067;82;25831;-63
2022/05/10 01:22:06;;;;;;;14.83;5.22;;;;;;;9.88;44.38;101673.41;1710381;82;98712;-63
2022/05/10 01:25:02;;;;;;;16.00;4.83;;;;;;;9.87;44.48;101670.77;1708981;82;25838;-62
2022/05/10 01:28:01;;;;;;;11.83;5.40;;;;;;;9.82;44.50;101664.64;1707857;82;99206;-61
2022/05/10 01:30:31;;;;;;;12.28;4.70;;;;;;;9.81;44.56;101669.57;1713485;82;26332;-62
2022/05/10 01:33:29;;;;;;;11.48;4.35;;;;;;;9.80;44.65;101671.83;1708285;82;98755;-61
2022/05/10 01:36:21;;;;;;;13.35;4.53;;;;;;;9.79;44.69;101666.05;1711208;82;28244;-61
2022/05/10 01:39:27;;;;;;;12.63;4.83;;;;;;;9.76;44.79;101668.34;1726548;81;98718;-61
2022/05/10 01:42:17;;;;;;;12.73;4.30;;;;;;;9.72;44.86;101664.86;1724924;81;25913;-62
2022/05/10 01:44:55;;;;;;;10.30;4.90;;;;;;;9.68;44.96;101660.48;1724408;81;98704;-63
2022/05/10 01:47:31;;;;;;;9.48;4.67;;;;;;;9.66;45.03;101664.12;1726200;81;25738;-62
2022/05/10 01:50:21;;;;;;;11.25;3.98;;;;;;;9.65;45.07;101663.70;1725286;81;98627;-62
2022/05/10 01:53:01;;;;;;;10.40;4.15;;;;;;;9.62;45.13;101659.75;1726971;81;25870;-63
2022/05/10 01:55:43;;;;;;;13.05;4.80;;;;;;;9.60;45.12;101654.89;1727378;81;25877;-61
2022/05/10 01:58:20;;;;;;;12.58;5.20;;;;;;;9.61;45.29;101652.18;1722668;81;98300;-61
2022/05/10 02:00:55;;;;;;;10.43;4.12;;;;;;;9.57;45.32;101650.95;1724849;81;25810;-63
2022/05/10 02:03:47;;;;;;;11.03;5.12;;;;;;;9.54;45.34;101652.36;1695200;83;98612;-63
2022/05/10 02:06:28;;;;;;;9.63;4.35;;;;;;;9.51;45.44;101647.08;1726219;81;25822;-61
2022/05/10 02:09:11;;;;;;;17.73;6.60;;;;;;;9.47;45.48;101640.91;1722255;81;100365;-61
2022/05/10 02:11:46;;;;;;;12.40;4.97;;;;;;;9.45;45.55;101638.73;1728445;81;26211;-62
2022/05/10 02:14:32;;;;;;;8.65;4.08;;;;;;;9.38;45.65;101632.63;1723738;81;98670;-61
2022/05/10 02:17:03;;;;;;;8.43;4.70;;;;;;;9.34;45.67;101629.61;1726559;81;25697;-62
2022/05/10 02:19:35;;;;;;;13.32;5.95;;;;;;;9.27;45.85;101625.30;1723819;81;26659;-61
2022/05/10 02:22:09;;;;;;;10.45;5.53;;;;;;;9.12;45.94;101609.59;1717043;81;98554;-62
2022/05/10 02:24:52;;;;;;;15.68;5.28;;;;;;;9.21;46.02;101621.43;1690438;83;26353;-61
2022/05/10 02:27:23;;;;;;;12.47;5.03;;;;;;;9.18;46.16;101618.83;1730495;81;98548;-62
2022/05/10 02:30:09;;;;;;;11.75;5.53;;;;;;;9.12;46.21;101617.63;1733009;81;27425;-61
2022/05/10 02:35:38;;;;;;;15.40;5.15;;;;;;;9.08;46.47;101611.91;1729409;81;26299;-62
2022/05/10 02:38:06;;;;;;;11.78;5.15;;;;;;;9.03;46.53;101609.80;1711851;81;98612;-62
2022/05/10 02:40:34;;;;;;;18.98;6.60;;;;;;;8.97;46.69;101604.58;1708198;82;25784;-61
2022/05/10 02:43:01;;;;;;;11.97;5.22;;;;;;;8.94;46.81;101604.19;1704569;82;29496;-62
2022/05/10 02:45:28;;;;;;;11.85;5.00;;;;;;;8.93;46.90;101601.55;1707665;82;98337;-62
2022/05/10 02:47:56;;;;;;;11.20;5.22;;;;;;;8.89;46.99;101601.19;1707575;82;26143;-62
2022/05/10 02:50:30;;;;;;;10.98;5.12;;;;;;;8.87;47.12;101599.00;1707109;82;98804;-62
2022/05/10 02:52:56;;;;;;;19.65;5.35;;;;;;;8.87;47.21;101599.00;1642151;85;25728;-62
2022/05/10 02:55:42;;;;;;;10.05;4.97;;;;;;;8.85;47.24;101592.81;1708185;83;29542;-62
2022/05/10 02:58:32;;;;;;;16.93;5.55;;;;;;;8.82;47.40;101596.88;1702412;82;98467;-62
2022/05/10 03:01:35;;;;;;;12.33;5.47;;;;;;;8.78;47.40;101596.06;1706252;82;25327;-61
2022/05/10 03:04:06;;;;;;;9.15;4.62;;;;;;;8.77;47.54;101598.31;1701758;82;98477;-62
2022/05/10 03:06:33;;;;;;;17.48;5.50;;;;;;;8.75;47.70;101590.78;1703651;82;25794;-64
2022/05/10 03:09:00;;;;;;;17.70;5.70;;;;;;;8.74;47.67;101591.23;1705474;82;98646;-62
2022/05/10 03:11:27;;;;;;;15.13;5.10;;;;;;;8.71;47.79;101594.43;1707878;82;25783;-61
2022/05/10 03:13:55;;;;;;;12.70;5.28;;;;;;;8.66;47.92;101586.51;1705966;82;98783;-62
2022/05/10 03:16:25;;;;;;;15.55;5.28;;;;;;;8.65;47.97;101590.55;1706750;83;25817;-62
2022/05/10 03:18:53;;;;;;;20.52;4.97;;;;;;;8.62;48.09;101587.48;1703181;82;25820;-61
2022/05/10 03:21:20;;;;;;;19.57;5.50;;;;;;;8.63;48.19;101591.91;1710377;82;98798;-62
2022/05/10 03:23:47;;;;;;;13.32;5.33;;;;;;;8.63;48.21;101591.91;1705726;82;25725;-62
2022/05/10 03:26:17;;;;;;;14.30;5.40;;;;;;;8.64;48.29;101589.67;1702015;82;98594;-62
2022/05/10 03:28:43;;;;;;;12.05;4.90;;;;;;;8.64;48.37;101591.00;1702630;82;25721;-61
2022/05/10 03:31:12;;;;;;;16.30;5.83;;;;;;;8.65;48.46;101591.42;1700577;83;25972;-62
2022/05/10 03:33:38;;;;;;;15.50;5.50;;;;;;;8.66;48.54;101589.63;1709597;82;98617;-63
2022/05/10 03:36:06;;;;;;;11.67;5.23;;;;;;;8.67;48.64;101587.39;1644199;85;26911;-62
2022/05/10 03:38:33;;;;;;;12.60;5.05;;;;;;;8.70;48.76;101587.33;1713859;81;98718;-61
2022/05/10 03:40:58;;;;;;;11.73;4.87;;;;;;;8.73;48.76;101588.14;1720966;81;27777;-64
2022/05/10 03:43:27;;;;;;;14.47;5.08;;;;;;;8.76;48.89;101585.86;1719548;81;25863;-64
2022/05/10 03:45:55;;;;;;;14.83;4.62;;;;;;;8.79;48.90;101582.67;1720347;81;98513;-62
2022/05/10 03:48:21;;;;;;;11.95;5.45;;;;;;;8.83;48.97;101582.61;1725991;81;25723;-62
2022/05/10 03:50:47;;;;;;;14.07;5.78;;;;;;;8.85;49.03;101578.11;1721283;81;98530;-62
2022/05/10 03:53:13;;;;;;;12.28;4.92;;;;;;;8.82;49.09;101569.69;1719878;81;25936;-62
2022/05/10 03:55:41;;;;;;;10.40;4.35;;;;;;;8.79;49.09;101563.08;1723408;81;25973;-62
2022/05/10 03:58:06;;;;;;;14.55;5.25;;;;;;;8.91;49.16;101574.84;1720362;81;98245;-62
2022/05/10 04:00:36;;;;;;;13.08;5.15;;;;;;;8.94;49.16;101577.45;1659569;84;25824;-62
2022/05/10 04:03:06;;;;;;;10.10;4.20;;;;;;;8.97;49.23;101572.49;1699325;82;98441;-61
2022/05/10 04:05:34;;;;;;;11.15;4.40;;;;;;;8.99;49.21;101574.67;1685142;82;26438;-62
2022/05/10 04:08:01;;;;;;;13.85;5.33;;;;;;;9.01;49.25;101575.52;1686395;83;98877;-62
2022/05/10 04:10:27;;;;;;;16.10;6.28;;;;;;;9.05;49.27;101578.09;1725573;81;27376;-61
2022/05/10 04:12:55;;;;;;;8.95;5.25;;;;;;;9.06;49.23;101573.63;1719844;81;25920;-62
2022/05/10 04:15:21;;;;;;;15.70;5.53;;;;;;;9.09;49.24;101573.10;1722581;81;98430;-62
2022/05/10 04:17:47;;;;;;;13.65;4.85;;;;;;;9.12;49.25;101569.48;1725479;81;27777;-62
2022/05/10 04:20:16;;;;;;;13.60;4.72;;;;;;;9.16;49.25;101570.29;1723575;81;98706;-62
2022/05/10 04:22:44;;;;;;;8.98;4.58;;;;;;;9.20;49.23;101570.64;1721551;81;27503;-62
2022/05/10 04:25:12;;;;;;;12.98;4.85;;;;;;;9.22;49.24;101571.48;1722763;81;27123;-62
2022/05/10 04:27:39;;;;;;;15.13;5.17;;;;;;;9.26;49.19;101570.50;1718955;81;98625;-62
2022/05/10 04:30:07;;;;;;;17.10;4.62;;;;;;;9.28;49.20;101570.89;1721395;81;26617;-62
2022/05/10 04:32:36;;;;;;;9.70;4.45;;;;;;;9.31;49.18;101572.16;1721016;81;99059;-62
2022/05/10 04:35:00;;;;;;;11.95;4.83;;;;;;;9.36;49.19;101562.22;1721659;81;25712;-62
2022/05/10 04:37:26;;;;;;;9.83;3.92;;;;;;;9.40;49.15;101563.91;1722169;81;26046;-62
2022/05/10 04:42:36;;;;;;;16.27;4.70;;;;;;;9.48;49.11;101558.38;1705296;82;25827;-63
2022/05/10 04:45:05;;;;;;;17.45;5.33;;;;;;;9.53;49.10;101557.80;1708128;82;98458;-62
2022/05/10 04:47:32;;;;;;;9.83;4.08;;;;;;;9.58;49.05;101558.57;1709972;82;27477;-62
2022/05/10 04:49:58;;;;;;;10.25;4.15;;;;;;;9.62;49.03;101560.25;1710507;82;98530;-63
2022/05/10 04:52:24;;;;;;;12.78;4.50;;;;;;;9.65;49.01;101552.61;1710374;82;25777;-62
2022/05/10 04:54:52;;;;;;;10.72;3.92;;;;;;;9.71;49.00;101556.01;1707301;83;25756;-61
2022/05/10 04:57:18;;;;;;;11.63;4.50;;;;;;;9.76;48.96;101556.77;1671722;85;98856;-62
2022/05/10 04:59:44;;;;;;;12.88;4.53;;;;;;;9.82;48.92;101560.21;1711871;82;26040;-61
2022/05/10 05:02:10;;;;;;;13.43;4.67;;;;;;;9.86;48.94;101556.08;1699331;82;99013;-61
2022/05/10 05:04:38;;;;;;;18.73;4.60;;;;;;;9.91;48.93;101563.53;1706586;82;25801;-62
2022/05/10 05:07:05;;;;;;;10.50;4.42;;;;;;;9.92;48.92;101552.36;1708419;83;25747;-64
2022/05/10 05:09:31;;;;;;;17.52;5.30;;;;;;;10.01;48.88;101550.78;1704237;82;98820;-61
2022/05/10 05:11:57;;;;;;;9.95;4.62;;;;;;;10.05;48.87;101555.14;1709240;82;27433;-62
2022/05/10 05:14:25;;;;;;;12.93;5.00;;;;;;;10.12;48.87;101553.17;1698716;82;99137;-62
2022/05/10 05:16:54;;;;;;;19.50;4.83;;;;;;;10.18;48.86;101550.33;1708207;82;25952;-63
2022/05/10 05:19:21;;;;;;;17.42;4.85;;;;;;;10.25;48.87;101549.27;1704581;82;25858;-63
2022/05/10 05:21:48;;;;;;;15.28;4.85;;;;;;;10.30;48.82;101552.24;1707429;82;99687;-63
2022/05/10 05:24:16;;;;;;;15.93;5.10;;;;;;;10.35;48.82;101551.66;1709054;82;27486;-63
2022/05/10 05:26:42;;;;;;;18.92;5.58;;;;;;;10.41;48.80;101547.43;1699108;82;99032;-63
2022/05/10 05:29:08;;;;;;;17.70;4.75;;;;;;;10.48;48.79;101548.13;1708741;82;26549;-63
2022/05/10 05:31:34;;;;;;;20.88;4.87;;;;;;;10.54;48.75;101541.72;1702828;82;26228;-63
2022/05/10 05:34:00;;;;;;;17.98;5.17;;;;;;;10.58;48.75;101545.61;1701571;82;98797;-63
2022/05/10 05:36:26;;;;;;;14.05;4.50;;;;;;;10.64;48.73;101535.16;1702854;82;27763;-64
2022/05/10 05:38:52;;;;;;;12.45;4.95;;;;;;;10.70;48.74;101543.03;1703369;82;98797;-63
2022/05/10 05:41:18;;;;;;;16.70;5.22;;;;;;;10.71;48.70;101533.59;1700816;82;25807;-64
2022/05/10 05:43:46;;;;;;;13.38;5.03;;;;;;;10.80;48.71;101537.81;1704317;82;25781;-63
2022/05/10 05:46:13;;;;;;;14.10;5.42;;;;;;;10.86;48.73;101531.38;1701579;82;98704;-64
2022/05/10 05:48:42;;;;;;;19.12;5.80;;;;;;;10.92;48.72;101540.12;1708790;82;27422;-63
2022/05/10 05:51:08;;;;;;;19.48;6.55;;;;;;;10.99;48.72;101538.13;1702334;82;98740;-64
2022/05/10 05:53:34;;;;;;;18.50;5.92;;;;;;;11.05;48.72;101540.16;1701142;82;26563;-63
2022/05/10 05:56:11;;;;;;;18.37;4.95;;;;;;;11.12;48.71;101540.84;1706084;82;99105;-64
2022/05/10 05:58:40;;;;;;;11.78;4.90;;;;;;;11.19;48.71;101546.91;1705368;83;25790;-63
2022/05/10 06:01:16;;;;;;;18.60;5.83;;;;;;;11.26;48.72;101541.29;1710154;82;28224;-63
2022/05/10 06:03:42;;;;;;;15.90;5.17;;;;;;;11.34;48.72;101531.65;1704877;82;98990;-65
2022/05/10 06:06:12;;;;;;;14.63;4.62;;;;;;;11.42;48.72;101534.97;1701839;82;25291;-65
2022/05/10 06:08:37;;;;;;;18.20;5.45;;;;;;;11.51;48.72;101534.66;1702108;82;98996;-62
2022/05/10 06:11:06;;;;;;;17.85;5.17;;;;;;;11.60;48.72;101534.82;1705133;82;25775;-63
2022/05/10 06:13:38;;;;;;;17.30;5.40;;;;;;;11.67;48.71;101539.06;1703079;82;29456;-63
2022/05/10 06:16:07;;;;;;;14.10;4.45;;;;;;;11.76;48.70;101536.06;1701485;82;97930;-63
2022/05/10 06:18:34;;;;;;;30.23;5.60;;;;;;;11.87;48.71;101525.86;1704109;82;25761;-63
2022/05/10 06:21:02;;;;;;;17.45;5.20;;;;;;;11.98;48.71;101524.14;1704742;82;98877;-63
2022/05/10 06:23:28;;;;;;;13.75;5.05;;;;;;;12.07;48.68;101526.97;1707651;82;25794;-64
2022/05/10 06:25:55;;;;;;;16.55;5.15;;;;;;;12.16;48.68;101526.64;1709749;82;99068;-65
2022/05/10 06:28:22;;;;;;;18.60;4.65;;;;;;;12.24;48.64;101520.53;1703461;82;25790;-65
2022/05/10 06:30:48;;;;;;;21.20;5.05;;;;;;;12.34;48.62;101521.95;1698267;82;26235;-63
2022/05/10 06:33:16;;;;;;;13.03;4.97;;;;;;;12.44;48.59;101515.30;1701465;82;98982;-64
2022/05/10 06:35:44;;;;;;;12.78;5.35;;;;;;;12.57;48.58;101521.97;1706947;82;25384;-64
2022/05/10 06:38:16;;;;;;;30.75;5.50;;;;;;;12.64;48.52;101512.73;1707694;83;99076;-63
2022/05/10 06:40:46;;;;;;;16.10;5.40;;;;;;;12.75;48.50;101519.52;1723978;81;25760;-63
2022/05/10 06:43:13;;;;;;;27.75;5.40;;;;;;;12.89;48.50;101513.14;1721759;81;25750;-63
2022/05/10 06:45:42;;;;;;;16.60;5.92;;;;;;;13.01;48.42;101511.28;1720449;81;98083;-63
2022/05/10 06:48:11;;;;;;;15.90;4.87;;;;;;;13.10;48.36;101513.61;1720553;81;25829;-63
2022/05/10 06:50:38;;;;;;;17.50;5.62;;;;;;;13.17;48.30;101507.53;1717328;81;99033;-63
2022/05/10 06:53:05;;;;;;;13.20;4.87;;;;;;;13.27;48.27;101508.45;1725233;81;26070;-63
2022/05/10 06:55:35;;;;;;;12.37;4.50;;;;;;;13.36;48.21;101504.97;1701175;81;26336;-63
2022/05/10 06:58:03;;;;;;;19.32;4.40;;;;;;;13.46;48.20;101502.31;1723563;81;98879;-70
2022/05/10 07:00:32;;;;;;;15.18;4.37;;;;;;;13.56;48.14;101502.33;1719797;81;25863;-69
2022/05/10 07:02:59;;;;;;;15.93;4.70;;;;;;;13.64;48.11;101502.88;1721992;81;98874;-69
2022/05/10 07:05:27;;;;;;;16.23;4.90;;;;;;;13.74;48.07;101493.47;1719963;81;25882;-69
2022/05/10 07:07:54;;;;;;;18.05;5.10;;;;;;;13.84;48.03;101491.25;1724294;81;99041;-69
2022/05/10 07:10:20;;;;;;;13.05;5.00;;;;;;;13.95;47.97;101489.84;1699466;82;27916;-69
2022/05/10 07:12:47;;;;;;;18.52;5.87;;;;;;;14.08;47.93;101483.91;1662596;84;25776;-69
2022/05/10 07:15:18;;;;;;;13.38;5.22;;;;;;;14.18;47.83;101487.95;1695934;82;98951;-69
2022/05/10 07:17:47;;;;;;;13.30;4.15;;;;;;;14.26;47.81;101479.92;1696642;82;26483;-69
2022/05/10 07:20:15;;;;;;;20.00;5.62;;;;;;;14.38;47.80;101481.18;1682730;83;98992;-68
2022/05/10 07:22:43;;;;;;;8.80;4.80;;;;;;;14.50;47.72;101479.30;1656985;84;26523;-68
2022/05/10 07:25:17;;;;;;;14.93;4.62;;;;;;;14.59;47.66;101473.48;1661923;84;25742;-69
2022/05/10 07:27:46;;;;;;;12.40;4.30;;;;;;;14.69;47.61;101469.00;1710311;81;98883;-69
2022/05/10 07:30:14;;;;;;;12.00;4.60;;;;;;;14.79;47.54;101473.01;1721512;81;25780;-69
2022/05/10 07:32:41;;;;;;;12.20;4.78;;;;;;;14.89;47.53;101475.20;1718903;81;98831;-68
2022/05/10 07:35:08;;;;;;;17.45;5.45;;;;;;;15.02;47.47;101470.08;1695069;82;25755;-68
2022/05/10 07:37:38;;;;;;;16.67;4.55;;;;;;;15.13;47.38;101468.20;1693864;82;25815;-70
2022/05/10 07:40:07;;;;;;;11.75;4.10;;;;;;;15.22;47.30;101463.70;1702518;82;98861;-68
2022/05/10 07:42:38;;;;;;;17.62;4.10;;;;;;;15.32;47.23;101469.52;1709090;82;25735;-68
2022/05/10 07:45:06;;;;;;;11.83;4.57;;;;;;;15.42;47.14;101463.58;1707769;82;98808;-65
2022/05/10 07:47:36;;;;;;;18.23;4.37;;;;;;;15.48;47.05;101459.22;1713432;82;26146;-65
2022/05/10 07:50:02;;;;;;;21.10;5.10;;;;;;;15.60;47.01;101455.53;1708814;82;99062;-67
2022/05/10 07:52:28;;;;;;;14.23;4.85;;;;;;;15.71;46.98;101455.81;1709570;82;28260;-67
2022/05/10 07:54:54;;;;;;;19.87;4.97;;;;;;;15.84;46.92;101457.80;1708565;82;26193;-66
2022/05/10 07:57:22;;;;;;;15.98;4.78;;;;;;;15.97;46.79;101449.05;1709177;82;98840;-66
2022/05/10 07:59:48;;;;;;;14.75;5.05;;;;;;;16.06;46.72;101444.50;1708166;82;26236;-66
2022/05/10 08:02:14;;;;;;;13.83;5.67;;;;;;;16.15;46.65;101436.77;1705984;82;99000;-66
2022/05/10 08:04:40;;;;;;;14.50;4.05;;;;;;;16.27;46.55;101439.28;1707009;82;27524;-67
2022/05/10 08:07:06;;;;;;;17.65;3.85;;;;;;;16.34;46.43;101439.34;1707671;82;26004;-66
2022/05/10 08:09:33;;;;;;;14.47;4.72;;;;;;;16.42;46.37;101435.74;1705520;82;98829;-67
2022/05/10 08:11:59;;;;;;;20.40;4.25;;;;;;;16.52;46.28;101432.92;1707234;82;25810;-67
2022/05/10 08:14:25;;;;;;;11.85;4.78;;;;;;;16.61;46.22;101426.13;1707263;82;99132;-68
2022/05/10 08:16:51;;;;;;;10.58;4.25;;;;;;;16.71;46.14;101434.64;1712128;82;29621;-67
2022/05/10 08:19:17;;;;;;;10.40;4.22;;;;;;;16.83;46.07;101435.30;1708687;83;27236;-68
2022/05/10 08:21:45;;;;;;;12.40;3.92;;;;;;;16.95;45.95;101431.89;1710410;82;98630;-66
2022/05/10 08:24:11;;;;;;;8.55;3.90;;;;;;;17.04;45.81;101431.36;1706862;83;25799;-67
2022/05/10 08:26:38;;;;;;;12.55;4.00;;;;;;;17.14;45.76;101419.51;1704458;82;98984;-67
2022/05/10 08:29:06;;;;;;;14.68;4.10;;;;;;;17.23;45.65;101420.81;1706262;83;27405;-67
2022/05/10 08:31:31;;;;;;;11.22;4.00;;;;;;;17.32;45.55;101416.20;1708973;82;26257;-67
2022/05/10 08:34:00;;;;;;;19.90;4.65;;;;;;;17.41;45.48;101408.40;1706115;82;99108;-68
2022/05/10 08:36:26;;;;;;;14.55;4.22;;;;;;;17.50;45.35;101408.33;1709863;82;26705;-69
2022/05/10 08:38:54;;;;;;;11.90;3.80;;;;;;;17.57;45.24;101405.64;1709663;82;98854;-74
2022/05/10 08:41:38;;;;;;;15.80;4.10;;;;;;;17.68;45.14;101411.80;1695688;82;28395;-68
2022/05/10 08:44:18;;;;;;;13.18;4.15;;;;;;;17.79;45.00;101411.54;1694559;82;99021;-67
2022/05/10 08:46:55;;;;;;;15.53;4.10;;;;;;;17.87;44.82;101403.41;1697732;82;26081;-66
2022/05/10 08:49:41;;;;;;;8.95;3.22;;;;;;;17.96;44.62;101398.78;1720649;81;25796;-64
2022/05/10 08:52:08;;;;;;;9.23;3.60;;;;;;;18.04;44.49;101400.53;1721125;81;98692;-65
2022/05/10 08:54:41;;;;;;;16.75;3.75;;;;;;;18.13;44.41;101400.83;1728062;81;27420;-66
2022/05/10 08:57:21;;;;;;;7.70;3.92;;;;;;;18.27;44.01;101393.14;1722106;81;98917;-67
2022/05/10 09:00:13;;;;;;;9.70;3.45;;;;;;;18.37;43.85;101398.37;1719455;81;25890;-66
2022/05/10 09:02:54;;;;;;;10.88;2.87;;;;;;;18.40;43.48;101399.53;1700794;81;98706;-65
2022/05/10 09:05:42;;;;;;;5.87;2.70;;;;;;;18.47;43.31;101388.66;1722733;81;25816;-65
2022/05/10 09:08:28;;;;;;;12.37;4.60;;;;;;;18.52;42.81;101380.70;1706969;82;98900;-67
2022/05/10 09:11:04;;;;;;;12.50;2.67;;;;;;;18.58;42.70;101372.16;1707522;83;25932;-67
2022/05/10 09:13:31;;;;;;;4.67;2.70;;;;;;;18.69;42.58;101381.39;1726952;81;25771;-66
2022/05/10 09:16:01;;;;;;;7.35;2.85;;;;;;;18.85;42.37;101379.89;1721921;81;98799;-66
2022/05/10 09:18:39;;;;;;;7.53;3.30;;;;;;;18.94;42.14;101370.27;1716607;81;25781;-66
2022/05/10 09:21:26;;;;;;;9.53;2.62;;;;;;;19.00;42.01;101377.52;1721328;81;98712;-67
2022/05/10 09:24:21;;;;;;;9.83;3.50;;;;;;;19.07;41.85;101374.77;1657293;83;26381;-67
2022/05/10 09:26:55;;;;;;;10.72;3.17;;;;;;;19.10;41.59;101366.41;1699134;82;98678;-67
2022/05/10 09:29:50;;;;;;;9.38;3.42;;;;;;;19.18;41.16;101365.02;1700541;82;25801;-67
2022/05/10 09:35:25;;;;;;;10.38;3.30;;;;;;;19.21;40.61;101364.33;1696940;82;29498;-67
2022/05/10 09:37:56;;;;;;;11.12;4.00;;;;;;;19.29;40.15;101361.09;1715485;81;25763;-68
2022/05/10 09:40:36;;;;;;;13.03;3.25;;;;;;;19.37;40.11;101353.28;1713702;81;98635;-67
2022/05/10 09:43:23;;;;;;;9.83;3.62;;;;;;;19.48;40.00;101352.54;1706467;82;26585;-67
2022/05/10 09:46:24;;;;;;;8.25;2.83;;;;;;;19.53;39.73;101345.84;1705114;82;98761;-66
2022/05/10 09:48:50;;;;;;;10.18;3.10;;;;;;;19.58;39.70;101342.30;1704879;82;28538;-66
2022/05/10 09:51:44;;;;;;;7.33;2.70;;;;;;;19.68;39.66;101336.61;1702466;82;98899;-66
2022/05/10 09:54:22;;;;;;;12.78;2.47;;;;;;;19.78;39.57;101344.50;1709884;82;25775;-66
2022/05/10 09:56:58;;;;;;;19.15;9.00;;;;;;;19.89;39.30;101341.50;1703569;83;98804;-67
2022/05/10 09:59:30;;;;;;;9.45;2.80;;;;;;;19.97;39.16;101336.39;1709491;82;25879;-67
2022/05/10 10:02:01;;;;;;;7.80;2.70;;;;;;;20.04;38.93;101333.61;1707823;82;27403;-67
2022/05/10 10:04:37;;;;;;;7.37;3.37;;;;;;;20.04;38.62;101335.84;1704735;82;98495;-68
2022/05/10 10:07:21;;;;;;;9.58;3.47;;;;;;;20.07;38.50;101332.02;1706231;82;25779;-67
2022/05/10 10:09:51;;;;;;;13.95;2.87;;;;;;;20.13;38.32;101308.45;1703063;82;98711;-69
2022/05/10 10:12:39;;;;;;;8.25;3.00;;;;;;;20.31;38.19;101319.35;1710803;82;25789;-66
2022/05/10 10:15:31;;;;;;;10.32;2.67;;;;;;;20.42;38.08;101319.95;1705317;82;98796;-67
2022/05/10 10:18:04;;;;;;;8.43;2.33;;;;;;;20.53;37.85;101325.97;1707628;82;25812;-68
2022/05/10 10:20:53;;;;;;;14.70;3.27;;;;;;;20.53;37.43;101311.86;1701531;82;98635;-67
2022/05/10 10:23:40;;;;;;;8.05;3.20;;;;;;;20.56;36.79;101314.85;1644367;85;26517;-67
2022/05/10 10:26:28;;;;;;;6.62;2.50;;;;;;;20.40;36.38;101309.18;1700760;82;98899;-68
2022/05/10 10:29:35;;;;;;;9.38;3.08;;;;;;;20.28;36.36;101305.97;1709807;82;28341;-67
2022/05/10 10:32:10;;;;;;;6.33;2.58;;;;;;;20.36;36.12;101299.46;1704671;82;25820;-67
2022/05/10 10:34:48;;;;;;;7.35;3.08;;;;;;;20.44;36.26;101291.25;1702605;82;98404;-67
2022/05/10 10:37:34;;;;;;;9.13;2.90;;;;;;;20.63;36.18;101299.79;1703300;82;26224;-67
2022/05/10 10:40:24;;;;;;;7.03;3.27;;;;;;;20.78;36.13;101285.50;1708491;82;98739;-66
2022/05/10 10:43:38;;;;;;;6.78;2.77;;;;;;;20.85;36.23;101290.34;1705461;82;27431;-68
2022/05/10 10:46:29;;;;;;;12.10;2.50;;;;;;;21.01;36.07;101290.91;1709560;82;98704;-68
2022/05/10 10:49:00;;;;;;;10.05;3.08;;;;;;;21.21;35.96;101284.41;1708418;82;25807;-65
2022/05/10 10:51:33;;;;;;;10.25;2.60;;;;;;;21.29;35.53;101279.27;1707767;82;98785;-67
2022/05/10 10:54:02;;;;;;;6.03;2.33;;;;;;;21.24;35.29;101280.11;1711018;82;25811;-68
2022/05/10 10:56:50;;;;;;;29.67;3.95;;;;;;;21.29;35.10;101272.45;1706630;82;98853;-68
2022/05/10 10:59:55;;;;;;;13.32;3.95;;;;;;;21.39;35.05;101266.64;1711348;82;25815;-66
2022/05/10 11:02:47;;;;;;;6.33;2.25;;;;;;;21.49;34.90;101259.47;1709859;82;99020;-66
2022/05/10 11:05:54;;;;;;;79.62;12.00;;;;;;;21.69;34.97;101249.70;1709088;82;26366;-65
2022/05/10 11:08:51;;;;;;;9.83;2.92;;;;;;;21.87;34.82;101246.84;1704929;83;99234;-66
2022/05/10 11:11:31;;;;;;;4.90;2.10;;;;;;;22.24;33.99;101243.87;1710420;82;26256;-66
2022/05/10 11:14:24;;;;;;;8.90;2.62;;;;;;;22.24;33.99;101243.87;1706217;82;25862;-66
2022/05/10 11:16:58;;;;;;;9.80;2.83;;;;;;;22.28;34.08;101230.33;1705969;82;98488;-67
2022/05/10 11:19:54;;;;;;;4.42;2.10;;;;;;;22.18;33.87;101209.74;1707663;82;25927;-66
2022/05/10 11:22:32;;;;;;;6.03;2.35;;;;;;;22.23;33.31;101205.27;1707218;82;98625;-67
2022/05/10 11:25:58;;;;;;;8.65;2.98;;;;;;;22.43;33.20;101226.81;1707023;82;27937;-67
2022/05/10 11:28:40;;;;;;;8.35;2.62;;;;;;;22.48;33.16;101230.03;1708175;82;98784;-68
2022/05/10 11:31:31;;;;;;;12.85;2.77;;;;;;;22.56;32.79;101227.52;1711942;82;25709;-68
2022/05/10 11:34:21;;;;;;;3.83;2.35;;;;;;;22.61;32.62;101226.13;1711309;82;98829;-69
2022/05/10 11:36:50;;;;;;;6.28;2.22;;;;;;;22.79;32.69;101217.37;1712329;82;25914;-70
2022/05/10 11:39:27;;;;;;;9.68;2.20;;;;;;;22.96;32.62;101209.98;1698616;82;99049;-71
2022/05/10 11:42:32;;;;;;;5.80;2.25;;;;;;;23.05;32.42;101200.13;1679785;83;25853;-70
2022/05/10 11:45:46;;;;;;;10.25;2.75;;;;;;;23.08;32.28;101202.09;1734459;81;98920;-70
2022/05/10 11:48:29;;;;;;;11.83;2.27;;;;;;;23.17;32.04;101201.79;1731560;81;25832;-66
2022/05/10 11:51:44;;;;;;;4.85;2.20;;;;;;;23.34;31.87;101192.97;1721934;81;99030;-67
2022/05/10 11:54:38;;;;;;;3.83;1.92;;;;;;;23.41;31.63;101188.66;1729363;81;27501;-68
2022/05/10 11:57:14;;;;;;;3.55;1.92;;;;;;;23.51;31.36;101182.73;1730468;81;98824;-66
2022/05/10 11:59:43;;;;;;;4.30;1.95;;;;;;;23.62;31.17;101177.20;1729799;81;26551;-66
2022/05/10 12:02:33;;;;;;;10.30;2.35;;;;;;;23.81;31.04;101175.54;1734775;81;26624;-67
2022/05/10 12:05:26;;;;;;;9.53;2.50;;;;;;;23.95;30.71;101172.41;1704086;82;98604;-67